createdAt,value
2018-04-28T00:00:45.830Z,986.92
2018-04-28T00:01:45.820Z,986.89
2018-04-28T00:02:45.842Z,986.90
2018-04-28T00:03:45.799Z,986.89
2018-04-28T00:04:45.796Z,986.94
2018-04-28T00:05:45.797Z,986.94
2018-04-28T00:06:45.790Z,986.90
2018-04-28T00:07:45.777Z,986.92
2018-04-28T00:08:45.771Z,986.93
2018-04-28T00:09:45.766Z,986.91
2018-04-28T00:10:45.760Z,986.94
2018-04-28T00:11:45.760Z,986.92
2018-04-28T00:12:45.748Z,986.95
2018-04-28T00:13:45.745Z,986.95
2018-04-28T00:14:45.743Z,986.96
2018-04-28T00:15:45.733Z,986.97
2018-04-28T00:16:45.723Z,987.01
2018-04-28T00:17:45.710Z,986.98
2018-04-28T00:18:45.715Z,986.95
2018-04-28T00:19:45.714Z,986.96
2018-04-28T00:20:45.704Z,986.96
2018-04-28T00:21:45.694Z,986.98
2018-04-28T00:22:45.697Z,987.02
2018-04-28T00:23:45.684Z,986.98
2018-04-28T00:24:45.680Z,986.99
2018-04-28T00:25:45.671Z,986.95
2018-04-28T00:26:45.674Z,986.99
2018-04-28T00:27:45.665Z,987.00
2018-04-28T00:28:45.655Z,986.98
2018-04-28T00:29:45.649Z,986.99
2018-04-28T00:30:45.644Z,986.98
2018-04-28T00:31:45.642Z,987.00
2018-04-28T00:32:45.632Z,986.99
2018-04-28T00:33:45.628Z,986.98
2018-04-28T00:34:45.619Z,987.00
2018-04-28T00:35:45.614Z,987.01
2018-04-28T00:36:45.617Z,987.00
2018-04-28T00:37:45.608Z,987.05
2018-04-28T00:38:45.620Z,987.03
2018-04-28T00:39:45.593Z,987.02
2018-04-28T00:40:45.598Z,987.02
2018-04-28T00:41:45.604Z,987.02
2018-04-28T00:42:45.580Z,987.01
2018-04-28T00:43:45.565Z,986.99
2018-04-28T00:44:45.585Z,986.99
2018-04-28T00:45:45.556Z,987.04
2018-04-28T00:46:45.552Z,987.00
2018-04-28T00:47:45.551Z,986.98
2018-04-28T00:48:45.546Z,987.06
2018-04-28T00:49:45.529Z,987.01
2018-04-28T00:50:45.527Z,987.01
2018-04-28T00:51:45.528Z,987.03
2018-04-28T00:52:45.518Z,987.01
2018-04-28T00:53:45.511Z,987.05
2018-04-28T00:54:45.506Z,986.99
2018-04-28T00:55:45.497Z,987.02
2018-04-28T00:56:45.493Z,987.00
2018-04-28T00:57:45.488Z,987.05
2018-04-28T00:58:45.480Z,987.04
2018-04-28T00:59:45.477Z,987.04
2018-04-28T01:00:45.470Z,987.05
2018-04-28T01:01:45.467Z,987.03
2018-04-28T01:02:45.459Z,987.08
2018-04-28T01:03:45.454Z,987.08
2018-04-28T01:04:45.445Z,987.10
2018-04-28T01:05:45.444Z,987.09
2018-04-28T01:06:45.435Z,987.13
2018-04-28T01:07:45.431Z,987.14
2018-04-28T01:08:45.420Z,987.18
2018-04-28T01:09:45.420Z,987.14
2018-04-28T01:10:45.415Z,987.15
2018-04-28T01:11:45.411Z,987.14
2018-04-28T01:12:45.410Z,987.12
2018-04-28T01:13:45.398Z,987.14
2018-04-28T01:14:45.390Z,987.15
2018-04-28T01:15:45.382Z,987.15
2018-04-28T01:16:45.378Z,987.15
2018-04-28T01:17:45.372Z,987.12
2018-04-28T01:18:45.367Z,987.19
2018-04-28T01:19:45.358Z,987.16
2018-04-28T01:20:45.361Z,987.16
2018-04-28T01:21:45.349Z,987.26
2018-04-28T01:22:45.344Z,987.25
2018-04-28T01:23:45.338Z,987.23
2018-04-28T01:24:45.331Z,987.22
2018-04-28T01:25:45.327Z,987.29
2018-04-28T01:26:45.319Z,987.24
2018-04-28T01:27:45.313Z,987.27
2018-04-28T01:28:45.315Z,987.30
2018-04-28T01:29:45.303Z,987.30
2018-04-28T01:30:45.296Z,987.29
2018-04-28T01:31:45.297Z,987.29
2018-04-28T01:32:45.285Z,987.35
2018-04-28T01:33:45.279Z,987.31
2018-04-28T01:34:45.281Z,987.39
2018-04-28T01:35:45.267Z,987.37
2018-04-28T01:36:45.265Z,987.44
2018-04-28T01:37:45.258Z,987.41
2018-04-28T01:38:45.253Z,987.41
2018-04-28T01:39:45.244Z,987.44
2018-04-28T01:40:45.239Z,987.42
2018-04-28T01:41:45.238Z,987.39
2018-04-28T01:42:45.230Z,987.42
2018-04-28T01:43:45.221Z,987.39
2018-04-28T01:44:45.220Z,987.41
2018-04-28T01:45:45.207Z,987.42
2018-04-28T01:46:45.202Z,987.40
2018-04-28T01:47:45.203Z,987.40
2018-04-28T01:48:45.197Z,987.42
2018-04-28T01:49:45.196Z,987.42
2018-04-28T01:50:45.196Z,987.47
2018-04-28T01:51:45.177Z,987.43
2018-04-28T01:52:45.170Z,987.40
2018-04-28T01:53:45.170Z,987.40
2018-04-28T01:54:45.159Z,987.42
2018-04-28T01:55:45.152Z,987.41
2018-04-28T01:56:45.149Z,987.45
2018-04-28T01:57:45.143Z,987.44
2018-04-28T01:58:45.137Z,987.44
2018-04-28T01:59:45.140Z,987.43
2018-04-28T02:00:45.117Z,987.47
2018-04-28T02:01:45.123Z,987.45
2018-04-28T02:02:45.116Z,987.47
2018-04-28T02:03:45.106Z,987.46
2018-04-28T02:04:45.103Z,987.47
2018-04-28T02:05:45.094Z,987.52
2018-04-28T02:06:45.091Z,987.49
2018-04-28T02:07:45.092Z,987.53
2018-04-28T02:08:45.078Z,987.58
2018-04-28T02:09:45.079Z,987.61
2018-04-28T02:10:45.068Z,987.54
2018-04-28T02:11:45.062Z,987.66
2018-04-28T02:12:45.058Z,987.63
2018-04-28T02:13:45.046Z,987.62
2018-04-28T02:14:45.052Z,987.61
2018-04-28T02:15:45.041Z,987.61
2018-04-28T02:16:45.043Z,987.60
2018-04-28T02:17:45.048Z,987.60
2018-04-28T02:18:45.025Z,987.63
2018-04-28T02:19:45.018Z,987.63
2018-04-28T02:20:45.010Z,987.63
2018-04-28T02:21:45.005Z,987.62
2018-04-28T02:22:44.999Z,987.61
2018-04-28T02:23:44.996Z,987.64
2018-04-28T02:24:44.988Z,987.64
2018-04-28T02:25:44.985Z,987.65
2018-04-28T02:26:44.984Z,987.64
2018-04-28T02:27:44.972Z,987.69
2018-04-28T02:28:44.964Z,987.65
2018-04-28T02:29:44.961Z,987.68
2018-04-28T02:30:44.955Z,987.69
2018-04-28T02:31:44.953Z,987.71
2018-04-28T02:32:44.954Z,987.71
2018-04-28T02:33:44.941Z,987.69
2018-04-28T02:34:44.932Z,987.71
2018-04-28T02:35:44.924Z,987.72
2018-04-28T02:36:44.917Z,987.73
2018-04-28T02:37:44.911Z,987.78
2018-04-28T02:38:44.909Z,987.80
2018-04-28T02:39:44.906Z,987.85
2018-04-28T02:40:44.903Z,987.90
2018-04-28T02:41:44.890Z,987.78
2018-04-28T02:42:44.889Z,987.89
2018-04-28T02:43:44.878Z,987.84
2018-04-28T02:44:44.877Z,987.82
2018-04-28T02:45:44.861Z,987.83
2018-04-28T02:46:44.861Z,987.82
2018-04-28T02:47:44.859Z,987.81
2018-04-28T02:48:44.855Z,987.79
2018-04-28T02:49:44.843Z,987.81
2018-04-28T02:50:44.839Z,987.78
2018-04-28T02:51:44.937Z,987.84
2018-04-28T02:52:44.830Z,987.81
2018-04-28T02:53:44.821Z,987.87
2018-04-28T02:54:44.826Z,987.91
2018-04-28T02:55:44.811Z,987.87
2018-04-28T02:56:44.808Z,987.90
2018-04-28T02:57:44.799Z,987.95
2018-04-28T02:58:44.799Z,987.94
2018-04-28T02:59:44.780Z,988.01
2018-04-28T03:00:44.779Z,988.02
2018-04-28T03:01:44.777Z,988.00
2018-04-28T03:02:44.768Z,988.01
2018-04-28T03:03:44.762Z,988.03
2018-04-28T03:04:44.765Z,988.07
2018-04-28T03:05:44.754Z,988.14
2018-04-28T03:06:44.751Z,988.11
2018-04-28T03:07:44.823Z,988.18
2018-04-28T03:08:44.735Z,988.18
2018-04-28T03:09:44.730Z,988.16
2018-04-28T03:10:44.723Z,988.20
2018-04-28T03:11:44.720Z,988.18
2018-04-28T03:12:44.713Z,988.24
2018-04-28T03:13:44.706Z,988.22
2018-04-28T03:14:44.707Z,988.30
2018-04-28T03:15:44.693Z,988.30
2018-04-28T03:16:44.693Z,988.35
2018-04-28T03:17:44.675Z,988.35
2018-04-28T03:18:44.671Z,988.39
2018-04-28T03:19:44.668Z,988.36
2018-04-28T03:20:44.663Z,988.40
2018-04-28T03:21:44.657Z,988.39
2018-04-28T03:22:44.663Z,988.39
2018-04-28T03:23:44.646Z,988.40
2018-04-28T03:24:44.641Z,988.42
2018-04-28T03:25:44.642Z,988.44
2018-04-28T03:26:44.630Z,988.41
2018-04-28T03:27:44.621Z,988.42
2018-04-28T03:28:44.621Z,988.45
2018-04-28T03:29:44.615Z,988.50
2018-04-28T03:30:44.613Z,988.52
2018-04-28T03:31:44.604Z,988.49
2018-04-28T03:32:44.597Z,988.47
2018-04-28T03:33:44.593Z,988.46
2018-04-28T03:34:44.584Z,988.48
2018-04-28T03:35:44.575Z,988.43
2018-04-28T03:36:44.571Z,988.52
2018-04-28T03:37:44.566Z,988.52
2018-04-28T03:38:44.562Z,988.54
2018-04-28T03:39:44.553Z,988.55
2018-04-28T03:40:44.551Z,988.55
2018-04-28T03:41:44.545Z,988.55
2018-04-28T03:42:44.538Z,988.53
2018-04-28T03:43:44.536Z,988.55
2018-04-28T03:44:44.529Z,988.50
2018-04-28T03:45:44.521Z,988.56
2018-04-28T03:46:44.516Z,988.55
2018-04-28T03:47:44.507Z,988.54
2018-04-28T03:48:44.502Z,988.56
2018-04-28T03:49:44.498Z,988.56
2018-04-28T03:50:44.490Z,988.52
2018-04-28T03:51:44.484Z,988.51
2018-04-28T03:52:44.480Z,988.54
2018-04-28T03:53:44.473Z,988.50
2018-04-28T03:54:44.470Z,988.51
2018-04-28T03:55:44.461Z,988.49
2018-04-28T03:56:44.454Z,988.43
2018-04-28T03:57:44.450Z,988.44
2018-04-28T03:58:44.455Z,988.44
2018-04-28T03:59:44.438Z,988.43
2018-04-28T04:00:44.435Z,988.46
2018-04-28T04:01:44.429Z,988.42
2018-04-28T04:02:44.426Z,988.48
2018-04-28T04:03:44.420Z,988.54
2018-04-28T04:04:44.427Z,988.54
2018-04-28T04:05:44.409Z,988.53
2018-04-28T04:06:44.401Z,988.59
2018-04-28T04:07:44.389Z,988.61
2018-04-28T04:08:44.380Z,988.60
2018-04-28T04:09:44.378Z,988.65
2018-04-28T04:10:44.375Z,988.63
2018-04-28T04:11:44.370Z,988.63
2018-04-28T04:12:44.366Z,988.66
2018-04-28T04:13:44.364Z,988.66
2018-04-28T04:14:44.350Z,988.69
2018-04-28T04:15:44.338Z,988.69
2018-04-28T04:16:44.346Z,988.69
2018-04-28T04:17:44.335Z,988.74
2018-04-28T04:18:44.329Z,988.78
2018-04-28T04:19:44.326Z,988.79
2018-04-28T04:20:44.324Z,988.80
2018-04-28T04:21:44.310Z,988.82
2018-04-28T04:22:44.309Z,988.87
2018-04-28T04:23:44.299Z,988.87
2018-04-28T04:24:44.292Z,988.89
2018-04-28T04:25:44.287Z,988.85
2018-04-28T04:26:44.285Z,988.90
2018-04-28T04:27:44.274Z,988.89
2018-04-28T04:28:44.267Z,988.90
2018-04-28T04:29:44.264Z,989.03
2018-04-28T04:30:44.253Z,989.02
2018-04-28T04:31:44.250Z,989.02
2018-04-28T04:32:44.257Z,989.04
2018-04-28T04:33:44.244Z,989.06
2018-04-28T04:34:44.237Z,989.07
2018-04-28T04:35:44.228Z,989.09
2018-04-28T04:36:44.225Z,989.08
2018-04-28T04:37:44.244Z,989.10
2018-04-28T04:38:44.211Z,989.09
2018-04-28T04:39:44.216Z,989.14
2018-04-28T04:40:44.227Z,989.15
2018-04-28T04:41:44.193Z,989.15
2018-04-28T04:42:44.188Z,989.14
2018-04-28T04:43:44.187Z,989.17
2018-04-28T04:44:44.177Z,989.19
2018-04-28T04:45:44.172Z,989.16
2018-04-28T04:46:44.237Z,989.19
2018-04-28T04:47:44.165Z,989.20
2018-04-28T04:48:44.157Z,989.22
2018-04-28T04:49:44.152Z,989.22
2018-04-28T04:50:44.146Z,989.23
2018-04-28T04:51:44.147Z,989.24
2018-04-28T04:52:44.132Z,989.24
2018-04-28T04:53:44.128Z,989.22
2018-04-28T04:54:44.118Z,989.25
2018-04-28T04:55:44.120Z,989.22
2018-04-28T04:56:44.112Z,989.25
2018-04-28T04:57:44.102Z,989.24
2018-04-28T04:58:44.097Z,989.28
2018-04-28T04:59:44.093Z,989.23
2018-04-28T05:00:44.102Z,989.26
2018-04-28T05:01:44.082Z,989.27
2018-04-28T05:02:44.074Z,989.27
2018-04-28T05:03:44.066Z,989.31
2018-04-28T05:04:44.061Z,989.26
2018-04-28T05:05:44.063Z,989.26
2018-04-28T05:06:44.052Z,989.28
2018-04-28T05:07:44.042Z,989.26
2018-04-28T05:08:44.039Z,989.25
2018-04-28T05:09:44.040Z,989.29
2018-04-28T05:10:44.037Z,989.25
2018-04-28T05:11:44.021Z,989.33
2018-04-28T05:12:44.018Z,989.29
2018-04-28T05:13:44.009Z,989.31
2018-04-28T05:14:44.001Z,989.32
2018-04-28T05:15:43.998Z,989.32
2018-04-28T05:16:43.995Z,989.33
2018-04-28T05:17:43.988Z,989.35
2018-04-28T05:18:43.985Z,989.38
2018-04-28T05:19:43.973Z,989.39
2018-04-28T05:20:43.972Z,989.37
2018-04-28T05:21:43.962Z,989.42
2018-04-28T05:22:43.960Z,989.42
2018-04-28T05:23:43.949Z,989.49
2018-04-28T05:24:43.947Z,989.44
2018-04-28T05:25:43.943Z,989.43
2018-04-28T05:26:43.935Z,989.47
2018-04-28T05:27:43.934Z,989.44
2018-04-28T05:28:43.926Z,989.51
2018-04-28T05:29:43.919Z,989.49
2018-04-28T05:30:43.906Z,989.53
2018-04-28T05:31:43.910Z,989.51
2018-04-28T05:32:43.912Z,989.52
2018-04-28T05:33:43.895Z,989.54
2018-04-28T05:34:43.890Z,989.57
2018-04-28T05:35:43.883Z,989.57
2018-04-28T05:36:43.879Z,989.55
2018-04-28T05:37:43.873Z,989.57
2018-04-28T05:38:43.866Z,989.59
2018-04-28T05:39:43.862Z,989.61
2018-04-28T05:40:43.858Z,989.59
2018-04-28T05:41:43.855Z,989.63
2018-04-28T05:42:43.845Z,989.63
2018-04-28T05:43:43.836Z,989.64
2018-04-28T05:44:43.824Z,989.64
2018-04-28T05:45:43.824Z,989.64
2018-04-28T05:46:43.821Z,989.67
2018-04-28T05:47:43.813Z,989.66
2018-04-28T05:48:43.808Z,989.66
2018-04-28T05:49:43.811Z,989.66
2018-04-28T05:50:43.797Z,989.66
2018-04-28T05:51:43.791Z,989.65
2018-04-28T05:52:43.784Z,989.70
2018-04-28T05:53:43.779Z,989.70
2018-04-28T05:54:43.772Z,989.71
2018-04-28T05:55:43.770Z,989.74
2018-04-28T05:56:43.768Z,989.75
2018-04-28T05:57:43.777Z,989.78
2018-04-28T05:58:43.753Z,989.75
2018-04-28T05:59:43.750Z,989.74
2018-04-28T06:00:43.740Z,989.77
2018-04-28T06:01:43.735Z,989.75
2018-04-28T06:02:43.725Z,989.75
2018-04-28T06:03:43.719Z,989.74
2018-04-28T06:04:43.716Z,989.75
2018-04-28T06:05:43.719Z,989.74
2018-04-28T06:06:43.714Z,989.75
2018-04-28T06:07:43.701Z,989.74
2018-04-28T06:08:43.693Z,989.73
2018-04-28T06:09:43.688Z,989.75
2018-04-28T06:10:43.676Z,989.74
2018-04-28T06:11:43.677Z,989.74
2018-04-28T06:12:43.671Z,989.76
2018-04-28T06:13:43.662Z,989.76
2018-04-28T06:14:43.662Z,989.76
2018-04-28T06:15:43.655Z,989.81
2018-04-28T06:16:43.650Z,989.80
2018-04-28T06:17:43.644Z,989.79
2018-04-28T06:18:43.637Z,989.82
2018-04-28T06:19:43.630Z,989.82
2018-04-28T06:20:43.630Z,989.82
2018-04-28T06:21:43.621Z,989.82
2018-04-28T06:22:43.622Z,989.84
2018-04-28T06:23:43.609Z,989.87
2018-04-28T06:24:43.604Z,989.86
2018-04-28T06:25:43.599Z,989.85
2018-04-28T06:26:43.594Z,989.86
2018-04-28T06:27:43.584Z,989.86
2018-04-28T06:28:43.579Z,989.88
2018-04-28T06:29:43.581Z,989.87
2018-04-28T06:30:43.573Z,989.91
2018-04-28T06:31:43.563Z,989.92
2018-04-28T06:32:43.556Z,989.92
2018-04-28T06:33:43.553Z,989.91
2018-04-28T06:34:43.545Z,989.92
2018-04-28T06:35:43.611Z,989.86
2018-04-28T06:36:43.528Z,989.91
2018-04-28T06:37:43.532Z,989.88
2018-04-28T06:38:43.525Z,989.86
2018-04-28T06:39:43.518Z,989.86
2018-04-28T06:40:43.512Z,989.89
2018-04-28T06:41:43.509Z,989.91
2018-04-28T06:42:43.498Z,989.94
2018-04-28T06:43:43.492Z,989.91
2018-04-28T06:44:43.491Z,989.95
2018-04-28T06:45:43.486Z,989.93
2018-04-28T06:46:43.476Z,989.90
2018-04-28T06:47:43.476Z,989.96
2018-04-28T06:48:43.466Z,989.98
2018-04-28T06:49:43.464Z,990.02
2018-04-28T06:50:43.455Z,990.05
2018-04-28T06:51:43.450Z,990.05
2018-04-28T06:52:43.447Z,990.05
2018-04-28T06:53:43.440Z,990.06
2018-04-28T06:54:43.434Z,990.10
2018-04-28T06:55:43.426Z,990.13
2018-04-28T06:56:43.426Z,990.12
2018-04-28T06:57:43.416Z,990.18
2018-04-28T06:58:43.417Z,990.20
2018-04-28T06:59:43.406Z,990.14
2018-04-28T07:00:43.399Z,990.15
2018-04-28T07:01:43.401Z,990.19
2018-04-28T07:02:43.414Z,990.24
2018-04-28T07:03:43.397Z,990.25
2018-04-28T07:04:43.376Z,990.25
2018-04-28T07:05:43.372Z,990.27
2018-04-28T07:06:43.367Z,990.25
2018-04-28T07:07:43.364Z,990.20
2018-04-28T07:08:43.355Z,990.19
2018-04-28T07:09:43.351Z,990.18
2018-04-28T07:10:43.420Z,990.14
2018-04-28T07:11:43.338Z,990.15
2018-04-28T07:12:43.334Z,990.13
2018-04-28T07:13:43.330Z,990.14
2018-04-28T07:14:43.322Z,990.14
2018-04-28T07:15:43.317Z,990.15
2018-04-28T07:16:43.310Z,990.15
2018-04-28T07:17:43.306Z,990.13
2018-04-28T07:18:43.300Z,990.12
2018-04-28T07:19:43.298Z,990.07
2018-04-28T07:20:43.297Z,990.09
2018-04-28T07:21:43.283Z,990.06
2018-04-28T07:22:43.281Z,990.09
2018-04-28T07:23:43.272Z,990.07
2018-04-28T07:24:43.269Z,990.09
2018-04-28T07:25:43.263Z,990.14
2018-04-28T07:26:43.257Z,990.19
2018-04-28T07:27:43.252Z,990.14
2018-04-28T07:28:43.244Z,990.15
2018-04-28T07:29:43.250Z,990.09
2018-04-28T07:30:43.235Z,990.08
2018-04-28T07:31:43.230Z,990.12
2018-04-28T07:32:43.227Z,990.05
2018-04-28T07:33:43.219Z,990.08
2018-04-28T07:34:43.213Z,990.06
2018-04-28T07:35:43.207Z,990.04
2018-04-28T07:36:43.205Z,990.01
2018-04-28T07:37:43.205Z,989.96
2018-04-28T07:38:43.197Z,989.99
2018-04-28T07:39:43.186Z,989.99
2018-04-28T07:40:43.183Z,990.00
2018-04-28T07:41:43.176Z,990.06
2018-04-28T07:42:43.173Z,990.07
2018-04-28T07:43:43.165Z,990.07
2018-04-28T07:44:43.157Z,990.09
2018-04-28T07:45:43.153Z,990.07
2018-04-28T07:46:43.150Z,990.10
2018-04-28T07:47:43.211Z,990.02
2018-04-28T07:48:43.147Z,990.05
2018-04-28T07:49:43.134Z,990.06
2018-04-28T07:50:43.126Z,990.08
2018-04-28T07:51:43.122Z,990.06
2018-04-28T07:52:43.118Z,990.10
2018-04-28T07:53:43.111Z,990.08
2018-04-28T07:54:43.113Z,990.12
2018-04-28T07:55:43.107Z,990.13
2018-04-28T07:56:43.110Z,990.15
2018-04-28T07:57:43.090Z,990.15
2018-04-28T07:58:43.086Z,990.16
2018-04-28T07:59:43.082Z,990.14
2018-04-28T08:00:43.074Z,990.13
2018-04-28T08:01:43.071Z,990.08
2018-04-28T08:02:43.064Z,990.05
2018-04-28T08:03:43.057Z,990.05
2018-04-28T08:04:43.062Z,990.12
2018-04-28T08:05:43.049Z,990.11
2018-04-28T08:06:43.049Z,990.11
2018-04-28T08:07:43.037Z,990.11
2018-04-28T08:08:43.034Z,990.13
2018-04-28T08:09:43.027Z,990.17
2018-04-28T08:10:43.164Z,990.17
2018-04-28T08:11:43.015Z,990.24
2018-04-28T08:12:43.009Z,990.18
2018-04-28T08:13:43.007Z,990.17
2018-04-28T08:14:42.997Z,990.17
2018-04-28T08:15:42.999Z,990.19
2018-04-28T08:16:42.987Z,990.15
2018-04-28T08:17:42.982Z,990.16
2018-04-28T08:18:42.974Z,990.20
2018-04-28T08:19:42.968Z,990.14
2018-04-28T08:20:43.002Z,990.12
2018-04-28T08:21:42.962Z,990.19
2018-04-28T08:22:42.975Z,990.12
2018-04-28T08:23:42.945Z,990.15
2018-04-28T08:24:42.938Z,990.14
2018-04-28T08:25:42.927Z,990.15
2018-04-28T08:26:42.922Z,990.11
2018-04-28T08:27:42.921Z,990.06
2018-04-28T08:28:42.918Z,990.05
2018-04-28T08:29:42.912Z,989.98
2018-04-28T08:30:42.904Z,990.00
2018-04-28T08:31:42.894Z,989.94
2018-04-28T08:32:42.892Z,990.01
2018-04-28T08:33:42.887Z,990.01
2018-04-28T08:34:42.879Z,989.99
2018-04-28T08:35:42.879Z,990.06
2018-04-28T08:36:42.884Z,990.12
2018-04-28T08:37:42.864Z,990.07
2018-04-28T08:38:42.855Z,990.05
2018-04-28T08:39:42.853Z,990.04
2018-04-28T08:40:42.844Z,990.08
2018-04-28T08:41:42.840Z,990.16
2018-04-28T08:42:42.839Z,990.15
2018-04-28T08:43:43.019Z,990.16
2018-04-28T08:44:42.830Z,990.13
2018-04-28T08:45:42.818Z,990.12
2018-04-28T08:46:42.809Z,990.15
2018-04-28T08:47:42.809Z,990.14
2018-04-28T08:48:42.797Z,990.17
2018-04-28T08:49:42.831Z,990.12
2018-04-28T08:50:42.821Z,990.15
2018-04-28T08:51:42.780Z,990.15
2018-04-28T08:52:42.772Z,990.17
2018-04-28T08:53:42.769Z,990.21
2018-04-28T08:54:42.770Z,990.22
2018-04-28T08:55:42.758Z,990.19
2018-04-28T08:56:42.838Z,990.22
2018-04-28T08:57:42.747Z,990.23
2018-04-28T08:58:42.740Z,990.26
2018-04-28T08:59:42.735Z,990.24
2018-04-28T09:00:42.728Z,990.25
2018-04-28T09:01:42.728Z,990.24
2018-04-28T09:02:42.719Z,990.25
2018-04-28T09:03:42.714Z,990.20
2018-04-28T09:04:42.708Z,990.18
2018-04-28T09:05:42.706Z,990.13
2018-04-28T09:06:42.695Z,990.21
2018-04-28T09:07:42.687Z,990.18
2018-04-28T09:08:42.689Z,990.21
2018-04-28T09:09:42.674Z,990.18
2018-04-28T09:10:42.673Z,990.21
2018-04-28T09:11:42.673Z,990.21
2018-04-28T09:12:42.666Z,990.24
2018-04-28T09:13:42.657Z,990.22
2018-04-28T09:14:42.650Z,990.18
2018-04-28T09:15:42.645Z,990.16
2018-04-28T09:16:42.637Z,990.16
2018-04-28T09:17:42.635Z,990.18
2018-04-28T09:18:42.633Z,990.19
2018-04-28T09:19:42.623Z,990.14
2018-04-28T09:20:42.622Z,990.15
2018-04-28T09:21:42.610Z,990.14
2018-04-28T09:22:42.609Z,990.09
2018-04-28T09:23:42.603Z,990.16
2018-04-28T09:24:42.595Z,990.11
2018-04-28T09:25:42.646Z,990.09
2018-04-28T09:26:42.585Z,990.03
2018-04-28T09:27:42.586Z,990.04
2018-04-28T09:28:42.588Z,990.04
2018-04-28T09:29:42.576Z,990.05
2018-04-28T09:30:42.565Z,989.97
2018-04-28T09:31:42.562Z,989.97
2018-04-28T09:32:42.548Z,990.00
2018-04-28T09:33:42.549Z,989.99
2018-04-28T09:34:42.545Z,990.01
2018-04-28T09:35:42.536Z,989.99
2018-04-28T09:36:42.542Z,989.97
2018-04-28T09:37:42.526Z,989.95
2018-04-28T09:38:42.523Z,989.99
2018-04-28T09:39:42.515Z,989.98
2018-04-28T09:40:42.511Z,989.97
2018-04-28T09:41:42.505Z,989.97
2018-04-28T09:42:42.502Z,990.02
2018-04-28T09:43:42.494Z,990.04
2018-04-28T09:44:42.492Z,990.09
2018-04-28T09:45:42.490Z,990.07
2018-04-28T09:46:42.483Z,990.02
2018-04-28T09:47:42.479Z,989.99
2018-04-28T09:48:42.471Z,989.94
2018-04-28T09:49:42.460Z,989.93
2018-04-28T09:50:42.459Z,989.88
2018-04-28T09:51:42.456Z,989.86
2018-04-28T09:52:42.448Z,989.87
2018-04-28T09:53:42.446Z,989.89
2018-04-28T09:54:42.442Z,989.90
2018-04-28T09:55:42.444Z,989.91
2018-04-28T09:56:42.428Z,989.95
2018-04-28T09:57:42.430Z,989.90
2018-04-28T09:58:42.420Z,989.91
2018-04-28T09:59:42.413Z,989.91
2018-04-28T10:00:42.408Z,989.89
2018-04-28T10:01:42.403Z,989.91
2018-04-28T10:02:42.400Z,989.94
2018-04-28T10:03:42.388Z,989.93
2018-04-28T10:04:42.384Z,989.90
2018-04-28T10:05:42.384Z,989.94
2018-04-28T10:06:42.378Z,989.96
2018-04-28T10:07:42.372Z,989.90
2018-04-28T10:08:42.369Z,989.80
2018-04-28T10:09:42.359Z,989.81
2018-04-28T10:10:42.355Z,989.82
2018-04-28T10:11:42.357Z,989.84
2018-04-28T10:12:42.422Z,989.84
2018-04-28T10:13:42.345Z,989.82
2018-04-28T10:14:42.351Z,989.79
2018-04-28T10:15:42.332Z,989.82
2018-04-28T10:16:42.327Z,989.79
2018-04-28T10:17:42.326Z,989.76
2018-04-28T10:18:42.328Z,989.72
2018-04-28T10:19:42.316Z,989.63
2018-04-28T10:20:42.309Z,989.71
2018-04-28T10:21:42.306Z,989.63
2018-04-28T10:22:42.298Z,989.67
2018-04-28T10:23:42.294Z,989.65
2018-04-28T10:24:42.289Z,989.58
2018-04-28T10:25:42.286Z,989.59
2018-04-28T10:26:42.279Z,989.55
2018-04-28T10:27:42.274Z,989.58
2018-04-28T10:28:42.270Z,989.58
2018-04-28T10:29:42.264Z,989.56
2018-04-28T10:30:42.259Z,989.53
2018-04-28T10:31:42.259Z,989.47
2018-04-28T10:32:42.253Z,989.42
2018-04-28T10:33:42.254Z,989.47
2018-04-28T10:34:42.239Z,989.48
2018-04-28T10:35:42.236Z,989.47
2018-04-28T10:36:42.231Z,989.49
2018-04-28T10:37:42.225Z,989.50
2018-04-28T10:38:42.222Z,989.46
2018-04-28T10:39:42.217Z,989.45
2018-04-28T10:40:42.210Z,989.42
2018-04-28T10:41:42.210Z,989.43
2018-04-28T10:42:42.207Z,989.43
2018-04-28T10:43:42.195Z,989.34
2018-04-28T10:44:42.195Z,989.40
2018-04-28T10:45:42.190Z,989.40
2018-04-28T10:46:42.183Z,989.41
2018-04-28T10:47:42.178Z,989.36
2018-04-28T10:48:42.172Z,989.25
2018-04-28T10:49:42.182Z,989.31
2018-04-28T10:50:42.161Z,989.25
2018-04-28T10:51:42.161Z,989.34
2018-04-28T10:52:42.159Z,989.35
2018-04-28T10:53:42.202Z,989.35
2018-04-28T10:54:42.145Z,989.29
2018-04-28T10:55:42.139Z,989.30
2018-04-28T10:56:42.132Z,989.33
2018-04-28T10:57:42.139Z,989.25
2018-04-28T10:58:42.127Z,989.27
2018-04-28T10:59:42.121Z,989.26
2018-04-28T11:00:42.113Z,989.27
2018-04-28T11:01:42.110Z,989.23
2018-04-28T11:02:42.114Z,989.19
2018-04-28T11:03:42.102Z,989.20
2018-04-28T11:04:42.097Z,989.21
2018-04-28T11:05:42.091Z,989.22
2018-04-28T11:06:42.088Z,989.19
2018-04-28T11:07:42.087Z,989.17
2018-04-28T11:08:42.079Z,989.17
2018-04-28T11:09:42.071Z,989.13
2018-04-28T11:10:42.070Z,989.15
2018-04-28T11:11:42.063Z,989.11
2018-04-28T11:12:42.063Z,989.12
2018-04-28T11:13:42.054Z,989.20
2018-04-28T11:14:42.055Z,989.17
2018-04-28T11:15:42.045Z,989.21
2018-04-28T11:16:42.040Z,989.22
2018-04-28T11:17:42.033Z,989.23
2018-04-28T11:18:42.041Z,989.22
2018-04-28T11:19:42.107Z,989.21
2018-04-28T11:20:42.021Z,989.18
2018-04-28T11:21:42.018Z,989.20
2018-04-28T11:22:42.010Z,989.14
2018-04-28T11:23:42.009Z,989.16
2018-04-28T11:24:42.003Z,989.16
2018-04-28T11:25:42.070Z,989.18
2018-04-28T11:26:41.988Z,989.14
2018-04-28T11:27:42.008Z,989.18
2018-04-28T11:28:41.972Z,989.23
2018-04-28T11:29:41.970Z,989.28
2018-04-28T11:30:41.974Z,989.26
2018-04-28T11:31:41.961Z,989.30
2018-04-28T11:32:41.956Z,989.31
2018-04-28T11:33:41.951Z,989.28
2018-04-28T11:34:41.949Z,989.24
2018-04-28T11:35:41.938Z,989.29
2018-04-28T11:36:41.936Z,989.29
2018-04-28T11:37:41.929Z,989.29
2018-04-28T11:38:41.923Z,989.27
2018-04-28T11:39:41.923Z,989.30
2018-04-28T11:40:41.914Z,989.27
2018-04-28T11:41:41.913Z,989.32
2018-04-28T11:42:41.902Z,989.27
2018-04-28T11:43:41.987Z,989.27
2018-04-28T11:44:41.887Z,989.27
2018-04-28T11:45:41.886Z,989.26
2018-04-28T11:46:41.878Z,989.20
2018-04-28T11:47:41.877Z,989.21
2018-04-28T11:48:41.866Z,989.23
2018-04-28T11:49:41.861Z,989.27
2018-04-28T11:50:41.857Z,989.27
2018-04-28T11:51:41.851Z,989.30
2018-04-28T11:52:41.845Z,989.30
2018-04-28T11:53:41.843Z,989.29
2018-04-28T11:54:41.836Z,989.24
2018-04-28T11:55:41.828Z,989.20
2018-04-28T11:56:41.829Z,989.26
2018-04-28T11:57:41.819Z,989.19
2018-04-28T11:58:41.819Z,989.20
2018-04-28T11:59:41.805Z,989.23
2018-04-28T12:00:41.802Z,989.24
2018-04-28T12:01:41.795Z,989.26
2018-04-28T12:02:41.843Z,989.22
2018-04-28T12:03:41.783Z,989.19
2018-04-28T12:04:41.779Z,989.20
2018-04-28T12:05:41.813Z,989.23
2018-04-28T12:06:41.768Z,989.19
2018-04-28T12:07:41.760Z,989.21
2018-04-28T12:08:41.754Z,989.21
2018-04-28T12:09:41.749Z,989.22
2018-04-28T12:10:41.742Z,989.22
2018-04-28T12:11:41.736Z,989.18
2018-04-28T12:12:41.796Z,989.17
2018-04-28T12:13:41.732Z,989.16
2018-04-28T12:14:41.721Z,989.17
2018-04-28T12:15:41.711Z,989.22
2018-04-28T12:16:41.709Z,989.14
2018-04-28T12:17:41.703Z,989.12
2018-04-28T12:18:41.697Z,989.10
2018-04-28T12:19:41.689Z,989.10
2018-04-28T12:20:41.682Z,989.04
2018-04-28T12:21:41.682Z,989.04
2018-04-28T12:22:41.671Z,989.01
2018-04-28T12:23:41.665Z,989.05
2018-04-28T12:24:41.660Z,989.06
2018-04-28T12:25:41.653Z,989.10
2018-04-28T12:26:41.649Z,989.03
2018-04-28T12:27:41.643Z,989.02
2018-04-28T12:28:41.637Z,988.99